Time;durP1;ratioP1;P1;durP2;ratioP2;P2;SDS_P1;SDS_P2;PMS_P1;PMS_P2;Temp;Humidity;BMP_temperature;BMP_pressure;BME280_temperature;BME280_humidity;BME280_pressure;Samples;Min_cycle;Max_cycle;Signal;HPM_P1;HPM_P2
2024/01/31 00:01:28;;;;;;;;;16.33;16.00;;;;;;;;5106606;27;45347;-74
2024/01/31 00:03:53;;;;;;;;;21.00;18.67;;;;;;;;5105473;27;45270;-74
2024/01/31 00:06:19;;;;;;;;;21.67;18.33;;;;;;;;5103748;27;45500;-74
2024/01/31 00:08:44;;;;;;;;;21.00;17.67;;;;;;;;5106073;27;45357;-73
2024/01/31 00:11:09;;;;;;;;;21.00;16.33;;;;;;;;5122574;27;45498;-73
2024/01/31 00:13:34;;;;;;;;;21.33;19.00;;;;;;;;5121121;27;45398;-73
2024/01/31 00:15:59;;;;;;;;;17.00;17.00;;;;;;;;5105258;27;45331;-73
2024/01/31 00:18:25;;;;;;;;;19.67;17.00;;;;;;;;5120184;27;45424;-73
2024/01/31 00:20:50;;;;;;;;;19.67;17.67;;;;;;;;5124210;27;46422;-73
2024/01/31 00:23:15;;;;;;;;;18.00;18.00;;;;;;;;5122265;27;45364;-74
2024/01/31 00:25:40;;;;;;;;;22.00;17.33;;;;;;;;5103437;27;45522;-73
2024/01/31 00:28:05;;;;;;;;;19.33;18.67;;;;;;;;5117931;27;45519;-73
2024/01/31 00:30:31;;;;;;;;;20.33;17.67;;;;;;;;5110147;27;45453;-74
2024/01/31 00:32:56;;;;;;;;;26.33;22.00;;;;;;;;5123358;27;45459;-74
2024/01/31 00:35:21;;;;;;;;;23.33;22.00;;;;;;;;5120256;27;45305;-74
2024/01/31 00:37:46;;;;;;;;;23.33;18.67;;;;;;;;5121010;27;45316;-74
2024/01/31 00:40:12;;;;;;;;;33.00;23.67;;;;;;;;5117616;27;46391;-74
2024/01/31 00:42:38;;;;;;;;;23.00;22.00;;;;;;;;5118455;27;45458;-74
2024/01/31 00:45:04;;;;;;;;;26.33;25.00;;;;;;;;5102951;27;45504;-73
2024/01/31 00:47:30;;;;;;;;;25.00;25.00;;;;;;;;5099964;27;45559;-73
2024/01/31 00:49:55;;;;;;;;;39.25;35.50;;;;;;;;5120816;27;45386;-72
2024/01/31 00:52:20;;;;;;;;;34.33;27.33;;;;;;;;5101859;27;45448;-73
2024/01/31 00:54:45;;;;;;;;;30.67;25.00;;;;;;;;5122024;27;45241;-74
2024/01/31 00:57:10;;;;;;;;;32.67;31.33;;;;;;;;5116322;27;45221;-74
2024/01/31 00:59:36;;;;;;;;;29.67;29.33;;;;;;;;5122956;27;45476;-74
2024/01/31 01:02:01;;;;;;;;;24.00;20.33;;;;;;;;5122599;27;45275;-73
2024/01/31 01:04:26;;;;;;;;;31.00;27.33;;;;;;;;5105068;27;45228;-73
2024/01/31 01:06:51;;;;;;;;;29.00;24.67;;;;;;;;5104857;27;45331;-74
2024/01/31 01:09:16;;;;;;;;;30.00;28.00;;;;;;;;5097224;27;48001;-73
2024/01/31 01:11:42;;;;;;;;;22.00;22.00;;;;;;;;5124710;27;45384;-73
2024/01/31 01:14:07;;;;;;;;;25.00;25.00;;;;;;;;5122429;27;45564;-73
2024/01/31 01:16:32;;;;;;;;;17.67;17.67;;;;;;;;5124844;27;45347;-74
2024/01/31 01:18:57;;;;;;;;;20.00;17.00;;;;;;;;5112110;27;46736;-73
2024/01/31 01:21:23;;;;;;;;;18.33;16.67;;;;;;;;5118169;27;45390;-73
2024/01/31 01:23:48;;;;;;;;;19.00;17.33;;;;;;;;5122961;27;45322;-74
2024/01/31 01:26:13;;;;;;;;;20.67;17.33;;;;;;;;5122352;27;45609;-74
2024/01/31 01:28:39;;;;;;;;;17.67;14.67;;;;;;;;5120483;27;46556;-74
2024/01/31 01:31:04;;;;;;;;;16.00;15.00;;;;;;;;5122714;27;45328;-74
2024/01/31 01:33:29;;;;;;;;;18.00;15.33;;;;;;;;5116903;27;45436;-75
2024/01/31 01:35:54;;;;;;;;;12.33;12.33;;;;;;;;5122984;27;45568;-72
2024/01/31 01:38:19;;;;;;;;;15.67;14.67;;;;;;;;5118719;27;47789;-72
2024/01/31 01:40:45;;;;;;;;;15.33;15.33;;;;;;;;5123072;27;45633;-73
2024/01/31 01:43:17;;;;;;;;;20.00;13.67;;;;;;;;5102420;27;45511;-73
2024/01/31 01:45:42;;;;;;;;;17.67;16.00;;;;;;;;5120865;27;45396;-73
2024/01/31 01:48:08;;;;;;;;;17.67;13.67;;;;;;;;5116248;27;46616;-74
2024/01/31 01:50:33;;;;;;;;;15.33;13.67;;;;;;;;5117811;27;45468;-74
2024/01/31 01:52:58;;;;;;;;;14.00;12.33;;;;;;;;5117595;27;45432;-74
2024/01/31 01:55:23;;;;;;;;;15.33;15.00;;;;;;;;5117613;27;45576;-74
2024/01/31 01:57:49;;;;;;;;;15.67;14.33;;;;;;;;5121713;27;45454;-74
2024/01/31 02:00:14;;;;;;;;;15.00;15.00;;;;;;;;5123764;27;45309;-74
2024/01/31 02:02:40;;;;;;;;;12.33;12.00;;;;;;;;5122138;27;45529;-73
2024/01/31 02:05:06;;;;;;;;;16.33;14.67;;;;;;;;5124071;27;45359;-73
2024/01/31 02:07:31;;;;;;;;;16.67;16.00;;;;;;;;5100344;27;46886;-73
2024/01/31 02:09:59;;;;;;;;;22.67;19.67;;;;;;;;5116539;27;45468;-74
2024/01/31 02:12:24;;;;;;;;;17.67;15.33;;;;;;;;5103406;27;45478;-75
2024/01/31 02:14:50;;;;;;;;;18.00;15.00;;;;;;;;5100807;27;45322;-71
2024/01/31 02:17:15;;;;;;;;;17.00;15.67;;;;;;;;5122092;27;45541;-73
2024/01/31 02:19:41;;;;;;;;;12.00;11.00;;;;;;;;5115606;27;45224;-73
2024/01/31 02:22:07;;;;;;;;;16.00;16.00;;;;;;;;5092288;27;45414;-74
2024/01/31 02:24:32;;;;;;;;;19.33;17.67;;;;;;;;5116709;27;45256;-74
2024/01/31 02:26:57;;;;;;;;;19.00;18.33;;;;;;;;5092275;27;47879;-74
2024/01/31 02:29:22;;;;;;;;;17.00;17.00;;;;;;;;5114681;27;45548;-72
2024/01/31 02:31:48;;;;;;;;;21.00;17.67;;;;;;;;5118058;27;45256;-74
2024/01/31 02:34:13;;;;;;;;;20.33;17.67;;;;;;;;5115504;27;45247;-77
2024/01/31 02:36:38;;;;;;;;;23.33;19.33;;;;;;;;5122733;27;45793;-73
2024/01/31 02:39:03;;;;;;;;;23.67;21.00;;;;;;;;5098160;27;45394;-75
2024/01/31 02:41:29;;;;;;;;;31.33;27.67;;;;;;;;5106256;27;45486;-75
2024/01/31 02:43:54;;;;;;;;;26.00;23.33;;;;;;;;5125132;27;46079;-75
2024/01/31 02:46:19;;;;;;;;;25.67;23.67;;;;;;;;5126177;27;46545;-75
2024/01/31 02:48:46;;;;;;;;;26.33;25.00;;;;;;;;5124725;27;45438;-75
2024/01/31 02:51:11;;;;;;;;;29.33;23.67;;;;;;;;5126095;27;45696;-75
2024/01/31 02:53:36;;;;;;;;;15.00;15.00;;;;;;;;5121865;27;45847;-75
2024/01/31 02:56:02;;;;;;;;;25.33;22.67;;;;;;;;5125922;27;46732;-75
2024/01/31 02:58:27;;;;;;;;;24.00;24.00;;;;;;;;5102449;27;45424;-75
2024/01/31 03:00:52;;;;;;;;;24.67;22.33;;;;;;;;5107962;27;45264;-75
2024/01/31 03:03:18;;;;;;;;;29.33;22.67;;;;;;;;5125277;27;45486;-75
2024/01/31 03:05:43;;;;;;;;;26.33;23.00;;;;;;;;5124228;27;46435;-75
2024/01/31 03:08:08;;;;;;;;;20.67;19.67;;;;;;;;5104188;27;45373;-76
2024/01/31 03:10:33;;;;;;;;;26.33;23.00;;;;;;;;5126237;27;45556;-75
2024/01/31 03:12:59;;;;;;;;;21.33;19.33;;;;;;;;5124534;27;45297;-75
2024/01/31 03:15:24;;;;;;;;;22.00;20.00;;;;;;;;5121831;27;45450;-75
2024/01/31 03:17:49;;;;;;;;;20.00;17.00;;;;;;;;5120692;27;45345;-75
2024/01/31 03:20:14;;;;;;;;;27.33;23.00;;;;;;;;5124962;27;45221;-75
2024/01/31 03:22:39;;;;;;;;;21.33;18.67;;;;;;;;5123468;27;45332;-75
2024/01/31 03:25:05;;;;;;;;;20.00;18.33;;;;;;;;5105169;27;47367;-75
2024/01/31 03:27:30;;;;;;;;;24.33;19.00;;;;;;;;5105578;27;45300;-75
2024/01/31 03:30:01;;;;;;;;;24.67;21.67;;;;;;;;5107552;27;45341;-75
2024/01/31 03:32:26;;;;;;;;;22.33;21.00;;;;;;;;5105540;27;45329;-75
2024/01/31 03:34:51;;;;;;;;;24.67;21.00;;;;;;;;5121077;27;45613;-75
2024/01/31 03:37:17;;;;;;;;;24.00;22.67;;;;;;;;5123479;27;45284;-75
2024/01/31 03:39:42;;;;;;;;;23.67;20.67;;;;;;;;5103687;27;45321;-75
2024/01/31 03:42:07;;;;;;;;;21.67;20.67;;;;;;;;5124890;27;45328;-75
2024/01/31 03:44:32;;;;;;;;;20.00;20.00;;;;;;;;5123057;27;46583;-76
2024/01/31 03:46:57;;;;;;;;;26.00;20.67;;;;;;;;5124862;27;45336;-75
2024/01/31 03:49:23;;;;;;;;;22.00;22.00;;;;;;;;5123032;27;45207;-75
2024/01/31 03:51:48;;;;;;;;;31.00;30.75;;;;;;;;5122473;27;45456;-76
2024/01/31 03:54:13;;;;;;;;;30.33;22.67;;;;;;;;5120833;27;45504;-76
2024/01/31 03:56:38;;;;;;;;;24.33;22.00;;;;;;;;5123267;27;45416;-75
2024/01/31 03:59:04;;;;;;;;;25.67;22.33;;;;;;;;5123662;27;45436;-75
2024/01/31 04:01:29;;;;;;;;;23.00;22.00;;;;;;;;5126040;27;45301;-75
2024/01/31 04:03:54;;;;;;;;;22.67;21.67;;;;;;;;5123338;27;45626;-75
2024/01/31 04:06:19;;;;;;;;;24.67;22.67;;;;;;;;5125270;27;45452;-75
2024/01/31 04:08:44;;;;;;;;;24.33;23.00;;;;;;;;5100259;27;45251;-75
2024/01/31 04:11:09;;;;;;;;;18.00;18.00;;;;;;;;5125776;27;45206;-75
2024/01/31 04:13:37;;;;;;;;;21.00;20.00;;;;;;;;5100231;27;47501;-75
2024/01/31 04:16:02;;;;;;;;;25.00;21.00;;;;;;;;5125085;27;45525;-76
2024/01/31 04:18:28;;;;;;;;;21.33;19.00;;;;;;;;5118838;27;45395;-75
2024/01/31 04:20:53;;;;;;;;;19.67;17.33;;;;;;;;5106950;27;45325;-75
2024/01/31 04:23:18;;;;;;;;;25.33;21.67;;;;;;;;5119834;27;46418;-73
2024/01/31 04:25:43;;;;;;;;;23.33;22.33;;;;;;;;5124880;27;45417;-76
2024/01/31 04:28:08;;;;;;;;;24.00;24.00;;;;;;;;5118600;27;46377;-75
2024/01/31 04:30:34;;;;;;;;;24.00;22.67;;;;;;;;5106987;27;45387;-76
2024/01/31 04:33:00;;;;;;;;;19.67;19.67;;;;;;;;5120465;27;45453;-76
2024/01/31 04:35:25;;;;;;;;;23.67;23.00;;;;;;;;5121512;27;45266;-75
2024/01/31 04:37:50;;;;;;;;;23.33;21.67;;;;;;;;5120137;27;45489;-76
2024/01/31 04:40:16;;;;;;;;;21.33;21.00;;;;;;;;5104766;27;45344;-75
2024/01/31 04:42:41;;;;;;;;;23.33;17.00;;;;;;;;5120685;27;45624;-75
2024/01/31 04:45:08;;;;;;;;;21.33;18.67;;;;;;;;5124427;27;45424;-75
2024/01/31 04:47:33;;;;;;;;;16.00;15.00;;;;;;;;5104721;27;45636;-75
2024/01/31 04:49:59;;;;;;;;;22.00;17.00;;;;;;;;5105410;27;45565;-75
2024/01/31 04:52:24;;;;;;;;;22.67;21.00;;;;;;;;5118348;27;45347;-75
2024/01/31 04:54:53;;;;;;;;;21.00;19.00;;;;;;;;5105904;27;46389;-75
2024/01/31 04:57:18;;;;;;;;;17.67;15.33;;;;;;;;5122218;27;45490;-75
2024/01/31 04:59:43;;;;;;;;;17.67;14.00;;;;;;;;5105825;27;45377;-75
2024/01/31 05:02:09;;;;;;;;;18.33;16.67;;;;;;;;5122933;27;46541;-75
2024/01/31 05:04:35;;;;;;;;;12.67;12.33;;;;;;;;5120838;27;45303;-76
2024/01/31 05:07:00;;;;;;;;;16.33;15.00;;;;;;;;5104882;27;45410;-76
2024/01/31 05:09:25;;;;;;;;;17.33;15.00;;;;;;;;5118788;27;45392;-75
2024/01/31 05:11:51;;;;;;;;;18.00;12.67;;;;;;;;5124550;27;45507;-75
2024/01/31 05:14:16;;;;;;;;;14.00;12.33;;;;;;;;5117429;27;45501;-75
2024/01/31 05:16:42;;;;;;;;;11.00;11.00;;;;;;;;5124411;27;45217;-75
2024/01/31 05:19:08;;;;;;;;;16.67;14.00;;;;;;;;5122231;27;45445;-75
2024/01/31 05:21:33;;;;;;;;;15.67;13.67;;;;;;;;5123869;27;45198;-75
2024/01/31 05:23:59;;;;;;;;;14.00;14.00;;;;;;;;5118917;27;45197;-75
2024/01/31 05:26:24;;;;;;;;;13.00;11.00;;;;;;;;5105170;27;45206;-75
2024/01/31 05:28:49;;;;;;;;;12.67;11.67;;;;;;;;5118047;27;45316;-76
2024/01/31 05:31:14;;;;;;;;;12.33;12.33;;;;;;;;5124081;27;46434;-76
2024/01/31 05:33:39;;;;;;;;;15.33;13.00;;;;;;;;5113730;27;45380;-75
2024/01/31 05:36:06;;;;;;;;;12.00;12.00;;;;;;;;5123704;27;45231;-75
2024/01/31 05:38:31;;;;;;;;;14.67;13.00;;;;;;;;5099235;27;45263;-75
2024/01/31 05:40:57;;;;;;;;;10.67;10.67;;;;;;;;5123484;27;45354;-75
2024/01/31 05:43:22;;;;;;;;;10.33;9.33;;;;;;;;5102977;27;45385;-75
2024/01/31 05:45:47;;;;;;;;;13.67;12.33;;;;;;;;5123845;27;45243;-75
2024/01/31 05:48:14;;;;;;;;;11.00;10.33;;;;;;;;5104375;27;45493;-75
2024/01/31 05:50:39;;;;;;;;;12.67;11.33;;;;;;;;5123541;27;46318;-75
2024/01/31 05:53:04;;;;;;;;;11.33;9.67;;;;;;;;5096589;27;45409;-75
2024/01/31 05:55:29;;;;;;;;;9.00;8.67;;;;;;;;5122860;27;45253;-75
2024/01/31 05:57:55;;;;;;;;;15.33;12.67;;;;;;;;5119205;27;45352;-74
2024/01/31 06:00:20;;;;;;;;;10.33;10.00;;;;;;;;5120713;27;45904;-74
2024/01/31 06:02:45;;;;;;;;;10.33;9.33;;;;;;;;5120031;27;45290;-75
2024/01/31 06:05:10;;;;;;;;;13.67;11.00;;;;;;;;5103364;27;45255;-75
2024/01/31 06:07:36;;;;;;;;;11.67;11.67;;;;;;;;5117987;27;45551;-75
2024/01/31 06:10:01;;;;;;;;;14.00;12.00;;;;;;;;5117014;27;45485;-76
2024/01/31 06:12:26;;;;;;;;;10.67;10.00;;;;;;;;5120609;27;47186;-75
2024/01/31 06:14:52;;;;;;;;;12.00;10.00;;;;;;;;5119714;27;45447;-76
2024/01/31 06:17:17;;;;;;;;;10.67;10.67;;;;;;;;5125579;27;45286;-75
2024/01/31 06:19:43;;;;;;;;;10.33;9.33;;;;;;;;5106982;27;47112;-75
2024/01/31 06:22:08;;;;;;;;;14.33;10.33;;;;;;;;5124428;27;45552;-75
2024/01/31 06:24:33;;;;;;;;;9.33;9.00;;;;;;;;5102966;27;45292;-76
2024/01/31 06:26:59;;;;;;;;;9.00;9.00;;;;;;;;5125668;27;45180;-75
2024/01/31 06:29:24;;;;;;;;;11.33;11.33;;;;;;;;5120274;27;45835;-75
2024/01/31 06:31:51;;;;;;;;;12.33;10.33;;;;;;;;5126208;27;45361;-76
2024/01/31 06:34:17;;;;;;;;;18.33;15.00;;;;;;;;5122647;27;45284;-75
2024/01/31 06:36:43;;;;;;;;;11.00;9.33;;;;;;;;5106799;27;45511;-76
2024/01/31 06:39:09;;;;;;;;;11.33;9.67;;;;;;;;5119029;27;45337;-76
2024/01/31 06:41:36;;;;;;;;;9.00;8.67;;;;;;;;5125434;27;45375;-76
2024/01/31 06:44:01;;;;;;;;;9.00;9.00;;;;;;;;5101815;27;45466;-75
2024/01/31 06:46:26;;;;;;;;;9.67;9.00;;;;;;;;5124352;27;45601;-75
2024/01/31 06:48:51;;;;;;;;;8.67;8.67;;;;;;;;5099176;27;47867;-76
2024/01/31 06:51:16;;;;;;;;;10.00;8.00;;;;;;;;5121795;27;45305;-76
2024/01/31 06:53:42;;;;;;;;;13.33;12.00;;;;;;;;5119587;27;45437;-76
2024/01/31 06:56:15;;;;;;;;;10.00;8.33;;;;;;;;5124825;27;45580;-76
2024/01/31 06:58:40;;;;;;;;;9.67;8.67;;;;;;;;5123166;27;46393;-76
2024/01/31 07:01:05;;;;;;;;;9.00;9.00;;;;;;;;5124907;27;45300;-76
2024/01/31 07:03:31;;;;;;;;;9.67;9.00;;;;;;;;5122928;27;45441;-75
2024/01/31 07:05:56;;;;;;;;;10.33;7.00;;;;;;;;5104810;27;45419;-75
2024/01/31 07:08:21;;;;;;;;;5.00;3.67;;;;;;;;5117171;27;45413;-74
2024/01/31 07:10:46;;;;;;;;;11.00;7.67;;;;;;;;5122532;27;45297;-76
2024/01/31 07:13:11;;;;;;;;;10.67;8.33;;;;;;;;5121391;27;45540;-76
2024/01/31 07:15:36;;;;;;;;;8.33;8.00;;;;;;;;5122131;27;45545;-75
2024/01/31 07:18:02;;;;;;;;;9.00;8.67;;;;;;;;5118687;27;46431;-75
2024/01/31 07:20:27;;;;;;;;;14.00;9.33;;;;;;;;5106260;27;45294;-76
2024/01/31 07:22:53;;;;;;;;;15.67;12.00;;;;;;;;5122209;27;45222;-75
2024/01/31 07:25:18;;;;;;;;;8.67;7.00;;;;;;;;5103446;27;45483;-74
2024/01/31 07:27:44;;;;;;;;;10.67;9.33;;;;;;;;5120634;27;45364;-73
2024/01/31 07:30:12;;;;;;;;;9.67;9.67;;;;;;;;5121844;27;45206;-74
2024/01/31 07:32:38;;;;;;;;;7.33;4.00;;;;;;;;5101897;27;45478;-73
2024/01/31 07:35:04;;;;;;;;;9.33;9.33;;;;;;;;5121226;27;45433;-74
2024/01/31 07:37:30;;;;;;;;;11.00;11.00;;;;;;;;5101008;27;46027;-73
2024/01/31 07:39:56;;;;;;;;;8.33;8.00;;;;;;;;5101209;27;45771;-73
2024/01/31 07:42:21;;;;;;;;;8.67;8.67;;;;;;;;5122509;27;45430;-73
2024/01/31 07:44:46;;;;;;;;;13.33;12.33;;;;;;;;5122755;27;45416;-74
2024/01/31 07:47:12;;;;;;;;;10.00;10.00;;;;;;;;5123333;27;45658;-73
2024/01/31 07:49:37;;;;;;;;;19.67;14.33;;;;;;;;5122148;27;45298;-75
2024/01/31 07:52:02;;;;;;;;;16.00;16.00;;;;;;;;5100026;27;45284;-73
2024/01/31 07:54:27;;;;;;;;;15.33;15.33;;;;;;;;5123473;27;45410;-73
2024/01/31 07:56:53;;;;;;;;;18.33;14.33;;;;;;;;5123740;27;45483;-72
2024/01/31 07:59:18;;;;;;;;;19.00;15.00;;;;;;;;5101087;27;45238;-73
2024/01/31 08:01:43;;;;;;;;;16.00;16.00;;;;;;;;5125106;27;45449;-73
2024/01/31 08:04:08;;;;;;;;;31.33;23.67;;;;;;;;5103778;27;45205;-73
2024/01/31 08:06:35;;;;;;;;;20.00;16.67;;;;;;;;5123762;27;46526;-73
2024/01/31 08:09:00;;;;;;;;;26.00;23.00;;;;;;;;5115618;27;45250;-73
2024/01/31 08:11:25;;;;;;;;;23.33;20.00;;;;;;;;5124523;27;45399;-74
2024/01/31 08:13:50;;;;;;;;;20.67;19.00;;;;;;;;5118089;27;45311;-72
2024/01/31 08:16:16;;;;;;;;;23.67;20.00;;;;;;;;5123615;27;45321;-74
2024/01/31 08:18:41;;;;;;;;;22.67;18.67;;;;;;;;5118589;27;45235;-73
2024/01/31 08:21:07;;;;;;;;;4.00;4.00;;;;;;;;5122894;27;45359;-72
2024/01/31 08:23:32;;;;;;;;;26.00;21.00;;;;;;;;5100403;27;45515;-72
2024/01/31 08:25:57;;;;;;;;;24.33;20.67;;;;;;;;5124099;27;45442;-72
2024/01/31 08:28:23;;;;;;;;;15.00;15.00;;;;;;;;5101536;27;45403;-77
2024/01/31 08:30:48;;;;;;;;;14.33;14.00;;;;;;;;5124046;27;45238;-77
2024/01/31 08:33:13;;;;;;;;;16.00;16.00;;;;;;;;5103941;27;45615;-76
2024/01/31 08:35:38;;;;;;;;;26.00;21.67;;;;;;;;5123502;27;45498;-77
2024/01/31 08:38:03;;;;;;;;;27.67;24.00;;;;;;;;5117895;27;45585;-77
2024/01/31 08:40:29;;;;;;;;;26.33;24.00;;;;;;;;5122899;27;45411;-77
2024/01/31 08:42:58;;;;;;;;;36.75;33.00;;;;;;;;5103900;27;45465;-77
2024/01/31 08:45:23;;;;;;;;;26.67;22.67;;;;;;;;5124446;27;45499;-77
2024/01/31 08:47:48;;;;;;;;;32.33;30.33;;;;;;;;5121108;27;45389;-77
2024/01/31 08:50:13;;;;;;;;;28.75;26.25;;;;;;;;5122720;27;45367;-77
2024/01/31 08:52:39;;;;;;;;;35.00;29.25;;;;;;;;5117170;27;45563;-77
2024/01/31 08:55:05;;;;;;;;;33.25;25.00;;;;;;;;5123055;27;45403;-75
2024/01/31 08:57:30;;;;;;;;;32.00;26.00;;;;;;;;5121189;27;45416;-77
2024/01/31 08:59:56;;;;;;;;;29.00;25.00;;;;;;;;5119423;27;45297;-78
2024/01/31 09:02:21;;;;;;;;;23.33;18.00;;;;;;;;5122599;27;45380;-76
2024/01/31 09:04:46;;;;;;;;;25.00;19.33;;;;;;;;5103358;27;47235;-75
2024/01/31 09:07:12;;;;;;;;;24.00;22.33;;;;;;;;5121728;27;45225;-76
2024/01/31 09:09:38;;;;;;;;;20.33;17.00;;;;;;;;5097433;27;45350;-77
2024/01/31 09:12:04;;;;;;;;;12.33;10.67;;;;;;;;5104493;27;45466;-76
2024/01/31 09:14:29;;;;;;;;;18.33;16.33;;;;;;;;5117794;27;46276;-77
2024/01/31 09:16:54;;;;;;;;;13.33;13.33;;;;;;;;5104717;27;45338;-77
2024/01/31 09:19:19;;;;;;;;;19.00;16.33;;;;;;;;5117260;27;45366;-76
2024/01/31 09:21:45;;;;;;;;;23.67;19.67;;;;;;;;5123314;27;45439;-76
2024/01/31 09:24:10;;;;;;;;;14.00;12.67;;;;;;;;5117943;27;46207;-77
2024/01/31 09:26:35;;;;;;;;;18.67;18.00;;;;;;;;5121423;27;45433;-77
2024/01/31 09:29:00;;;;;;;;;13.33;13.33;;;;;;;;5117809;27;45434;-76
2024/01/31 09:31:26;;;;;;;;;13.67;9.67;;;;;;;;5123876;27;45597;-76
2024/01/31 09:33:52;;;;;;;;;10.67;9.67;;;;;;;;5095907;27;45605;-77
2024/01/31 09:36:18;;;;;;;;;14.00;11.00;;;;;;;;5123553;27;45297;-76
2024/01/31 09:38:44;;;;;;;;;17.33;13.33;;;;;;;;5114707;27;45451;-76
2024/01/31 09:41:10;;;;;;;;;12.33;12.33;;;;;;;;5124397;27;45375;-76
2024/01/31 09:43:35;;;;;;;;;10.67;10.00;;;;;;;;5120035;27;47270;-77
2024/01/31 09:46:03;;;;;;;;;15.33;10.33;;;;;;;;5123843;27;45366;-76
2024/01/31 09:48:29;;;;;;;;;9.67;9.00;;;;;;;;5118216;27;45377;-76
2024/01/31 09:50:55;;;;;;;;;13.67;10.00;;;;;;;;5127287;27;45302;-75
2024/01/31 09:53:22;;;;;;;;;10.33;10.33;;;;;;;;5123100;27;46152;-76
2024/01/31 09:55:47;;;;;;;;;10.00;10.00;;;;;;;;5126821;27;45377;-77
2024/01/31 09:58:12;;;;;;;;;12.00;10.67;;;;;;;;5124184;27;45217;-77
2024/01/31 10:00:38;;;;;;;;;17.67;13.33;;;;;;;;5127859;27;45479;-78
2024/01/31 10:03:04;;;;;;;;;14.67;13.33;;;;;;;;5106042;27;46828;-77
2024/01/31 10:05:29;;;;;;;;;17.00;13.67;;;;;;;;5126012;27;45329;-76
2024/01/31 10:08:04;;;;;;;;;18.33;15.33;;;;;;;;5125018;27;45594;-76
2024/01/31 10:10:29;;;;;;;;;16.67;16.67;;;;;;;;5120820;27;45391;-75
2024/01/31 10:12:55;;;;;;;;;21.00;15.67;;;;;;;;5125078;27;45319;-76
2024/01/31 10:15:21;;;;;;;;;18.00;14.00;;;;;;;;5125672;27;45369;-76
2024/01/31 10:17:46;;;;;;;;;14.67;13.00;;;;;;;;5099932;27;45389;-75
2024/01/31 10:20:13;;;;;;;;;17.00;14.33;;;;;;;;5100089;27;45274;-76
2024/01/31 10:22:38;;;;;;;;;17.00;14.33;;;;;;;;5123535;27;46417;-75
2024/01/31 10:25:04;;;;;;;;;25.00;20.00;;;;;;;;5107877;27;45434;-75
2024/01/31 10:27:29;;;;;;;;;24.00;17.33;;;;;;;;5101476;27;45230;-76
2024/01/31 10:29:55;;;;;;;;;21.33;18.33;;;;;;;;5125485;27;45373;-76
2024/01/31 10:32:21;;;;;;;;;32.33;26.67;;;;;;;;5105275;27;48018;-75
2024/01/31 10:34:47;;;;;;;;;36.00;35.00;;;;;;;;5117027;27;45456;-75
2024/01/31 10:37:12;;;;;;;;;25.33;24.33;;;;;;;;5123371;27;45303;-75
2024/01/31 10:39:39;;;;;;;;;32.33;30.33;;;;;;;;5118123;27;45345;-75
2024/01/31 10:42:04;;;;;;;;;84.75;74.75;;;;;;;;5105315;27;47199;-75
2024/01/31 10:44:30;;;;;;;;;86.25;78.25;;;;;;;;5102126;27;45396;-76
2024/01/31 10:46:55;;;;;;;;;47.75;39.75;;;;;;;;5121144;27;45249;-75
2024/01/31 10:49:21;;;;;;;;;77.25;59.75;;;;;;;;5119574;27;45286;-77
2024/01/31 10:51:48;;;;;;;;;46.50;38.00;;;;;;;;5125397;27;45481;-76
2024/01/31 10:54:15;;;;;;;;;29.50;29.25;;;;;;;;5100483;27;45509;-77
2024/01/31 10:56:40;;;;;;;;;54.00;43.00;;;;;;;;5125935;27;45453;-76
2024/01/31 10:59:08;;;;;;;;;32.67;32.33;;;;;;;;5105056;27;45509;-76
2024/01/31 11:01:34;;;;;;;;;54.00;43.25;;;;;;;;5123386;27;45562;-76
2024/01/31 11:04:03;;;;;;;;;102.25;91.75;;;;;;;;5106196;27;45346;-76
2024/01/31 11:06:40;;;;;;;;;50.75;41.00;;;;;;;;5106282;27;45517;-73
2024/01/31 11:09:06;;;;;;;;;46.50;38.25;;;;;;;;5125829;27;45503;-75
2024/01/31 11:11:32;;;;;;;;;72.50;56.75;;;;;;;;5107777;27;45631;-76
2024/01/31 11:14:07;;;;;;;;;24.67;21.33;;;;;;;;5124027;27;45442;-77
2024/01/31 11:16:32;;;;;;;;;46.50;40.25;;;;;;;;5104826;27;45616;-78
2024/01/31 11:18:58;;;;;;;;;41.25;35.00;;;;;;;;5101858;27;45431;-77
2024/01/31 11:21:23;;;;;;;;;33.67;30.67;;;;;;;;5125244;27;45285;-77
2024/01/31 11:23:48;;;;;;;;;16.67;12.67;;;;;;;;5122357;27;45449;-77
2024/01/31 11:26:14;;;;;;;;;24.33;23.33;;;;;;;;5117383;27;45476;-77
2024/01/31 11:28:41;;;;;;;;;25.33;20.67;;;;;;;;5118618;27;45450;-78
2024/01/31 11:31:07;;;;;;;;;54.75;43.75;;;;;;;;5125344;27;47459;-75
2024/01/31 11:33:32;;;;;;;;;25.67;22.67;;;;;;;;5118893;27;45397;-76
2024/01/31 11:35:57;;;;;;;;;36.33;30.33;;;;;;;;5118249;27;45416;-77
2024/01/31 11:38:22;;;;;;;;;30.67;24.00;;;;;;;;5119258;27;45427;-77
2024/01/31 11:40:47;;;;;;;;;31.00;28.00;;;;;;;;5119305;27;45587;-74
2024/01/31 11:43:14;;;;;;;;;68.50;52.00;;;;;;;;5118665;27;45573;-76
2024/01/31 11:45:39;;;;;;;;;65.25;51.75;;;;;;;;5106739;27;45488;-77
2024/01/31 11:48:05;;;;;;;;;38.25;33.75;;;;;;;;5119956;27;45301;-77
2024/01/31 11:50:30;;;;;;;;;82.50;67.00;;;;;;;;5124852;27;45313;-75
2024/01/31 11:52:56;;;;;;;;;28.67;25.67;;;;;;;;5120884;27;46244;-77
2024/01/31 11:55:29;;;;;;;;;59.50;48.25;;;;;;;;5113653;27;45493;-75
2024/01/31 11:57:54;;;;;;;;;34.00;30.25;;;;;;;;5104651;27;45670;-75
2024/01/31 12:00:20;;;;;;;;;36.00;31.25;;;;;;;;5122663;27;46637;-76
2024/01/31 12:02:46;;;;;;;;;26.33;23.00;;;;;;;;5124001;27;45369;-72
2024/01/31 12:05:11;;;;;;;;;18.00;17.67;;;;;;;;5124892;27;45397;-72
2024/01/31 12:07:36;;;;;;;;;24.33;20.00;;;;;;;;5122557;27;45424;-73
2024/01/31 12:10:03;;;;;;;;;31.33;24.33;;;;;;;;5120171;27;45353;-72
2024/01/31 12:12:31;;;;;;;;;23.33;21.33;;;;;;;;5124683;27;45191;-72
2024/01/31 12:14:56;;;;;;;;;19.33;16.00;;;;;;;;5121879;27;45403;-72
2024/01/31 12:17:23;;;;;;;;;20.00;19.00;;;;;;;;5124440;27;45433;-72
2024/01/31 12:19:49;;;;;;;;;19.33;17.67;;;;;;;;5123434;27;45478;-72
2024/01/31 12:22:15;;;;;;;;;20.33;17.33;;;;;;;;5126035;27;45359;-73
2024/01/31 12:24:40;;;;;;;;;20.67;20.00;;;;;;;;5119913;27;45270;-73
2024/01/31 12:27:05;;;;;;;;;21.33;16.67;;;;;;;;5105461;27;45563;-73
2024/01/31 12:29:31;;;;;;;;;20.67;16.67;;;;;;;;5118475;27;47530;-72
2024/01/31 12:31:56;;;;;;;;;14.67;14.00;;;;;;;;5124435;27;45270;-74
2024/01/31 12:34:22;;;;;;;;;12.00;12.00;;;;;;;;5116450;27;45444;-74
2024/01/31 12:36:47;;;;;;;;;17.00;17.00;;;;;;;;5105653;27;45458;-73
2024/01/31 12:39:17;;;;;;;;;20.33;17.67;;;;;;;;5105310;27;47865;-73
2024/01/31 12:41:42;;;;;;;;;14.67;13.33;;;;;;;;5123306;27;45188;-73
2024/01/31 12:44:07;;;;;;;;;13.33;10.33;;;;;;;;5120921;27;45576;-72
2024/01/31 12:46:33;;;;;;;;;16.67;16.33;;;;;;;;5124746;27;45252;-72
2024/01/31 12:48:58;;;;;;;;;19.00;17.33;;;;;;;;5117877;27;45550;-73
2024/01/31 12:51:23;;;;;;;;;18.00;17.00;;;;;;;;5123894;27;45342;-73
2024/01/31 12:53:48;;;;;;;;;21.67;14.67;;;;;;;;5117200;27;45471;-73
2024/01/31 12:56:13;;;;;;;;;12.33;10.00;;;;;;;;5124584;27;45424;-73
2024/01/31 12:58:38;;;;;;;;;17.33;16.33;;;;;;;;5104701;27;48326;-72
2024/01/31 13:01:04;;;;;;;;;25.33;16.33;;;;;;;;5123749;27;45414;-72
2024/01/31 13:03:29;;;;;;;;;18.33;15.33;;;;;;;;5123409;27;45400;-73
2024/01/31 13:05:54;;;;;;;;;20.00;18.67;;;;;;;;5105425;27;45438;-71
2024/01/31 13:08:19;;;;;;;;;21.00;19.67;;;;;;;;5103107;27;47526;-73
2024/01/31 13:10:44;;;;;;;;;21.00;19.33;;;;;;;;5121498;27;45348;-73
2024/01/31 13:13:10;;;;;;;;;20.33;18.00;;;;;;;;5121894;27;45398;-72
2024/01/31 13:15:35;;;;;;;;;18.33;17.67;;;;;;;;5102733;27;45578;-72
2024/01/31 13:18:00;;;;;;;;;21.33;17.00;;;;;;;;5100636;27;47127;-71
2024/01/31 13:20:26;;;;;;;;;19.33;15.33;;;;;;;;5122630;27;45409;-71
2024/01/31 13:22:52;;;;;;;;;22.00;17.67;;;;;;;;5120681;27;45494;-72
2024/01/31 13:25:17;;;;;;;;;27.00;21.00;;;;;;;;5105511;27;45637;-71
2024/01/31 13:27:42;;;;;;;;;16.67;12.67;;;;;;;;5103204;27;46566;-72
2024/01/31 13:30:07;;;;;;;;;14.67;13.67;;;;;;;;5117197;27;45424;-73
2024/01/31 13:32:32;;;;;;;;;16.67;14.67;;;;;;;;5104131;27;45456;-71
2024/01/31 13:34:58;;;;;;;;;17.67;13.67;;;;;;;;5099682;27;45306;-71
2024/01/31 13:37:23;;;;;;;;;12.67;12.33;;;;;;;;5102987;27;46647;-71
2024/01/31 13:39:48;;;;;;;;;15.33;15.00;;;;;;;;5119824;27;45350;-71
2024/01/31 13:42:13;;;;;;;;;14.00;14.00;;;;;;;;5123006;27;45399;-72
2024/01/31 13:44:40;;;;;;;;;18.00;14.00;;;;;;;;5105445;27;45269;-71
2024/01/31 13:47:05;;;;;;;;;18.67;15.00;;;;;;;;5123139;27;46452;-72
2024/01/31 13:49:33;;;;;;;;;19.33;15.33;;;;;;;;5099173;27;45394;-70
2024/01/31 13:51:59;;;;;;;;;20.00;14.00;;;;;;;;5119531;27;45363;-71
2024/01/31 13:54:24;;;;;;;;;15.00;13.67;;;;;;;;5118497;27;47566;-72
2024/01/31 13:56:50;;;;;;;;;13.67;11.67;;;;;;;;5123178;27;45424;-72
2024/01/31 13:59:16;;;;;;;;;9.00;8.33;;;;;;;;5119851;27;45403;-73
2024/01/31 14:01:41;;;;;;;;;15.33;12.67;;;;;;;;5104507;27;45562;-72
2024/01/31 14:04:07;;;;;;;;;9.33;9.00;;;;;;;;5115970;27;45535;-72
2024/01/31 14:06:33;;;;;;;;;19.67;12.33;;;;;;;;5104489;27;47492;-72
2024/01/31 14:08:58;;;;;;;;;18.00;11.67;;;;;;;;5103578;27;45559;-73